Relevés horaires Chievres (Belgique)


Relevés horaires à Chievres - Jeudi 12 Oct. 2017
Heure UTC1 Température [°C] Vent [km/h] Hum. [%] Pres.4 [hPa] Visi. [Km] Nébu. [octa] Préc.5 [mm] Cond.
2m. Res. Ros. Dir.2 Vit. Moy. Raf.3
23:00 11.3 11.3 10.8 SSO 3.7 -- 5.6 97 1024.4(0.0/3h) 13 -- -- NA
22:00 10.0 10.0 9.1 S 3.7 -- 5.6 94 1024.4(0.0/3h) 16 -- -- --
21:00 10.3 10.3 9.1 SSO 3.7 -- 5.6 92 1024.5(0.4/3h) 16 -- -- --
20:00 11.3 11.3 9.5 NNO 3.7 -- 3.7 89 1024.5(0.4/3h) 16 -- -- --
19:00 12.8 12.8 9.6 NNO 1.9 -- 5.6 81 1024.4(0.5/3h) 19 -- -- --
18:00 13.1 13.1 9.6 S 3.7 -- 16.7 79 1024(0.6/3h) 20 -- -- --
17:00 14.8 14.8 9.7 SO 3.7 -- 9.3 71 1024(0.4/3h) 20 -- -- --
16:00 16.7 16.7 9.6 SO 7.4 -- 14.8 63 1023.7(0.1/3h) 19 -- -- --
15:00 17.6 17.6 9.3 OSO 7.4 -- 16.7 58 1023.3(-0.1/3h) 20 -- -- --
14:00 17.6 17.6 9.0 OSO 9.3 -- 16.7 57 1023.3(-0.2/3h) 18 -- -- --
13:00 16.8 16.8 8.3 O 7.4 -- 14.8 57 1023.5(0.2/3h) 20 -- -- --
11:00 16.2 16.1 9.3 OSO 9.3 -- 14.8 64 1023.7 20 -- -- --
10:00 15.1 15.1 10.4 O 7.4 -- 13.0 73 1023.2 15 -- -- --
09:00 14.1 13.9 10.5 O 7.4 -- 13.0 79 1022.7(3.0/3h) 17 -- -- --
08:00 12.8 12.4 10.4 OSO 7.4 -- 9.3 85 1022(2.7/3h) 18 -- -- --
07:00 11.1 10.8 9.9 OSO 5.6 -- 9.3 92 1021(2.9/3h) 16 -- -- --
06:00 11.3 11.1 9.8 OSO 5.6 -- 22.2 90 1019.7(2.5/3h) 16 -- -- --
05:00 11.7 11.5 9.7 OSO 5.6 -- 14.8 88 1019.2(2.6/3h) 20 -- -- --
04:00 13.3 12.7 11.4 O 9.3 -- 14.8 88 1018(2.0/3h) 18 -- -- --
03:00 13.5 13.2 12.9 OSO 7.4 -- 22.2 96 1017.1(1.7/3h) 19 -- -- --
02:00 14.1 13.6 13.1 OSO 9.3 -- 22.2 94 1016.5(1.1/3h) 20 -- -- --
01:00 15.7 15.1 12.2 SO 13.0 -- 20.4 80 1015.7(0.3/3h) 20 -- -- --
00:00 15.5 14.9 11.9 SO 13.0 -- 22.2 79 1015.2(0.0/3h) 20 -- -- --

1 Coordinated Universal Time. Actuellement il est 00:00 locale et 22:00 UTC.

2 Le vent souffle depuis la direction indiquée vers la direction oposée.

3 Les rafales max. sont disponible 40 min après l'heure du relevé.

4 Pour les stations d'altitude (plus de 600m) le géopotentiel du niveau le plus proche de la pression obligatoire est indiqué.

5 Les stations disposant d'un diffuseur peuvent indiquer "trace". Cela signifie que des précipitations ont touchés le sol mais que la quantité est inférieure à 0.1 mm.

Récapitulatif de la journée
Température [°C] Vent [km/h] Ensoleillement4 [h] Precipitations totale5 [mm] Pression [Hpa]
Min1 Max.2 Moy.3 Max. Min Max.
11.1 18.0 0 22.2 0 h 0 min 0 1015.2 1024.5

1 Température minimale relevée entre 18:00 UTC la veille et 18:00 UTC le jour donné.

2 Température maximale relevée entre 06:00 UTC le jour donné et 06:00 UTC le lendemain.

3 Vent moyen de la journée basé sur les relevés horaires.

4 Ensoleillement en heures relevé entre 06:00 UTC la veille et 06:00 UTC le jour donné.

5 Précipitations totales tombées entre 06:00 UTC la jour donné et 06:00 UTC le lendemain.

Graphiques horaires